Time;durP1;ratioP1;P1;durP2;ratioP2;P2;SDS_P1;SDS_P2;PMS_P1;PMS_P2;Temp;Humidity;BMP_temperature;BMP_pressure;BME280_temperature;BME280_humidity;BME280_pressure;Samples;Min_cycle;Max_cycle;Signal;HPM_P1;HPM_P2
2020/12/29 00:01:44;;;;;;;4.10;3.67;;;2.70;99.90;;;;;;5044073;28;20474;-76
2020/12/29 00:04:19;;;;;;;4.33;3.70;;;2.80;99.90;;;;;;5060557;28;20414;-77
2020/12/29 00:06:51;;;;;;;5.27;3.37;;;2.80;99.90;;;;;;5074954;28;20402;-77
2020/12/29 00:09:18;;;;;;;4.83;2.93;;;2.80;99.90;;;;;;5054440;28;20591;-77
2020/12/29 00:11:45;;;;;;;3.33;3.03;;;2.70;99.90;;;;;;5060906;28;20380;-77
2020/12/29 00:14:12;;;;;;;3.67;3.37;;;2.70;99.90;;;;;;5044389;28;20943;-78
2020/12/29 00:16:38;;;;;;;3.50;3.20;;;2.50;99.90;;;;;;5091213;28;20388;-76
2020/12/29 00:19:10;;;;;;;4.50;3.20;;;2.40;99.90;;;;;;5077057;28;20920;-76
2020/12/29 00:21:37;;;;;;;4.80;3.17;;;2.30;99.90;;;;;;5070813;28;20204;-76
2020/12/29 00:24:03;;;;;;;3.33;3.13;;;2.10;99.90;;;;;;5057819;28;20434;-76
2020/12/29 00:26:28;;;;;;;3.67;3.37;;;2.10;99.90;;;;;;5090842;28;20409;-75
2020/12/29 00:28:54;;;;;;;3.07;2.80;;;1.90;99.90;;;;;;5077038;28;20903;-75
2020/12/29 00:31:22;;;;;;;2.80;2.60;;;1.90;99.90;;;;;;5093369;28;21046;-75
2020/12/29 00:33:50;;;;;;;4.00;3.57;;;1.80;99.90;;;;;;5094960;28;20418;-75
2020/12/29 00:36:17;;;;;;;3.00;2.80;;;1.60;99.90;;;;;;5076130;28;20392;-75
2020/12/29 00:38:44;;;;;;;3.50;3.20;;;1.40;99.90;;;;;;5059838;28;20520;-75
2020/12/29 00:41:12;;;;;;;9.43;4.20;;;1.30;99.90;;;;;;5077038;28;20447;-75
2020/12/29 00:43:39;;;;;;;4.03;3.67;;;1.30;99.90;;;;;;5068806;28;20417;-75
2020/12/29 00:46:16;;;;;;;2.50;2.30;;;1.30;99.90;;;;;;5077084;28;20409;-75
2020/12/29 00:48:42;;;;;;;5.60;3.40;;;1.20;99.90;;;;;;5076678;28;20428;-75
2020/12/29 00:51:13;;;;;;;3.67;3.37;;;1.00;99.90;;;;;;5077351;28;20426;-75
2020/12/29 00:53:39;;;;;;;3.60;2.80;;;0.80;99.90;;;;;;5093583;28;20766;-76
2020/12/29 00:56:06;;;;;;;3.80;3.50;;;0.60;99.90;;;;;;5070968;28;20444;-75
2020/12/29 00:58:33;;;;;;;3.00;2.80;;;0.50;99.90;;;;;;5095277;28;20674;-75
2020/12/29 01:00:59;;;;;;;4.57;2.97;;;0.70;99.90;;;;;;5095588;28;20384;-76
2020/12/29 01:03:25;;;;;;;3.57;3.27;;;1.00;99.90;;;;;;5058287;28;20429;-75
2020/12/29 01:05:52;;;;;;;5.20;3.70;;;1.10;99.90;;;;;;5075205;28;20274;-75
2020/12/29 01:08:18;;;;;;;5.20;4.07;;;1.00;99.90;;;;;;5076650;28;20405;-75
2020/12/29 01:10:44;;;;;;;4.87;3.33;;;0.80;99.90;;;;;;5077304;28;20421;-76
2020/12/29 01:13:12;;;;;;;5.23;3.97;;;0.70;99.90;;;;;;5059517;28;20392;-76
2020/12/29 01:15:38;;;;;;;4.80;2.97;;;0.50;99.90;;;;;;5054973;28;20391;-76
2020/12/29 01:18:03;;;;;;;4.13;3.67;;;0.40;99.90;;;;;;5071370;28;20429;-75
2020/12/29 01:20:29;;;;;;;3.87;3.27;;;0.40;99.90;;;;;;5076440;28;20421;-76
2020/12/29 01:22:55;;;;;;;7.80;3.70;;;0.40;99.90;;;;;;5085824;28;20269;-76
2020/12/29 01:25:22;;;;;;;5.63;4.40;;;0.40;99.90;;;;;;5085117;28;20215;-76
2020/12/29 01:27:48;;;;;;;3.10;2.73;;;0.30;99.90;;;;;;5078962;28;20458;-75
2020/12/29 01:30:15;;;;;;;8.17;4.50;;;0.10;99.90;;;;;;5087517;28;20968;-76
2020/12/29 01:32:42;;;;;;;4.17;3.67;;;0.00;99.90;;;;;;5079878;28;20436;-76
2020/12/29 01:35:08;;;;;;;5.17;3.90;;;-0.10;99.90;;;;;;5057799;28;20417;-75
2020/12/29 01:37:34;;;;;;;4.30;3.90;;;-0.10;99.90;;;;;;5075893;28;20508;-75
2020/12/29 01:40:00;;;;;;;5.63;4.47;;;-0.10;99.90;;;;;;5072541;28;21413;-76
2020/12/29 01:42:27;;;;;;;4.33;3.90;;;-0.10;99.90;;;;;;5062694;28;20491;-76
2020/12/29 01:44:53;;;;;;;4.77;4.00;;;-0.20;99.90;;;;;;5068111;28;20821;-76
2020/12/29 01:47:20;;;;;;;6.40;5.10;;;-0.20;99.90;;;;;;5078525;28;20894;-76
2020/12/29 01:49:47;;;;;;;5.10;4.37;;;-0.20;99.90;;;;;;5096109;28;20875;-76
2020/12/29 01:52:14;;;;;;;7.33;5.23;;;-0.20;99.90;;;;;;5062435;28;20795;-76
2020/12/29 01:54:40;;;;;;;4.63;3.63;;;-0.20;99.90;;;;;;5095638;28;20409;-76
2020/12/29 01:57:07;;;;;;;6.10;4.60;;;-0.10;99.90;;;;;;5097668;28;20408;-76
2020/12/29 01:59:34;;;;;;;5.90;3.90;;;-0.20;99.90;;;;;;5078820;28;20944;-76
2020/12/29 02:02:01;;;;;;;4.87;4.40;;;-0.30;99.90;;;;;;5078516;28;20892;-76
2020/12/29 02:04:27;;;;;;;4.83;4.30;;;-0.40;99.90;;;;;;5091699;28;20965;-76
2020/12/29 02:06:54;;;;;;;5.37;4.00;;;-0.60;99.90;;;;;;5065473;28;20395;-76
2020/12/29 02:09:20;;;;;;;3.93;3.60;;;-0.70;99.90;;;;;;5080099;28;20990;-76
2020/12/29 02:11:46;;;;;;;4.40;3.90;;;-0.90;99.90;;;;;;5097091;28;20414;-75
2020/12/29 02:14:12;;;;;;;3.87;3.57;;;-0.80;99.90;;;;;;5093070;28;20238;-75
2020/12/29 02:16:38;;;;;;;4.27;3.60;;;-0.90;99.90;;;;;;5060847;27;20839;-75
2020/12/29 02:19:09;;;;;;;5.00;4.50;;;-1.00;99.90;;;;;;5061257;28;20486;-75
2020/12/29 02:21:35;;;;;;;4.73;4.10;;;-1.20;99.90;;;;;;5076546;28;20946;-75
2020/12/29 02:24:03;;;;;;;5.00;3.73;;;-1.30;99.90;;;;;;5078818;28;20854;-76
2020/12/29 02:26:34;;;;;;;4.43;3.57;;;-1.20;99.90;;;;;;5057704;28;20432;-75
2020/12/29 02:29:05;;;;;;;6.40;3.60;;;-1.20;99.90;;;;;;5082482;28;20416;-75
2020/12/29 02:31:33;;;;;;;3.80;3.50;;;-1.30;99.90;;;;;;5074897;28;20380;-75
2020/12/29 02:34:00;;;;;;;7.70;4.40;;;-1.40;99.90;;;;;;5078982;28;20414;-75
2020/12/29 02:36:26;;;;;;;6.43;3.90;;;-1.40;99.90;;;;;;5079717;28;20418;-75
2020/12/29 02:38:52;;;;;;;5.23;4.33;;;-1.50;99.90;;;;;;5081095;28;20480;-75
2020/12/29 02:41:18;;;;;;;4.57;4.10;;;-1.40;99.90;;;;;;5062411;28;20388;-75
2020/12/29 02:43:45;;;;;;;4.17;3.77;;;-1.40;99.90;;;;;;5061736;28;20211;-75
2020/12/29 02:46:15;;;;;;;4.93;4.43;;;-1.40;99.90;;;;;;5094353;28;20208;-75
2020/12/29 02:48:41;;;;;;;3.73;3.43;;;-1.40;99.90;;;;;;5088427;28;20900;-75
2020/12/29 02:51:07;;;;;;;4.10;3.70;;;-1.40;99.90;;;;;;5095893;28;20446;-75
2020/12/29 02:53:36;;;;;;;4.40;4.00;;;-1.50;99.90;;;;;;5077949;28;20415;-75
2020/12/29 02:56:04;;;;;;;4.50;3.60;;;-1.50;99.90;;;;;;5091992;28;20459;-76
2020/12/29 02:58:31;;;;;;;4.70;4.20;;;-1.60;99.90;;;;;;5077351;28;20436;-76
2020/12/29 03:00:57;;;;;;;6.63;3.60;;;-1.60;99.90;;;;;;5094002;28;20485;-76
2020/12/29 03:03:23;;;;;;;5.27;3.70;;;-1.60;99.90;;;;;;5061495;28;20763;-75
2020/12/29 03:05:49;;;;;;;4.70;3.97;;;-1.60;99.90;;;;;;5075867;28;20207;-76
2020/12/29 03:08:14;;;;;;;6.37;4.60;;;-1.60;99.90;;;;;;5078807;28;20213;-75
2020/12/29 03:10:40;;;;;;;4.77;3.47;;;-1.70;99.90;;;;;;5076569;28;20483;-76
2020/12/29 03:13:06;;;;;;;5.70;3.90;;;-1.50;99.90;;;;;;5074789;28;20713;-75
2020/12/29 03:15:32;;;;;;;4.53;4.03;;;-1.30;99.90;;;;;;5093667;28;20524;-75
2020/12/29 03:17:57;;;;;;;5.10;4.60;;;-1.30;99.90;;;;;;5091716;28;20260;-75
2020/12/29 03:20:23;;;;;;;6.23;4.20;;;-1.30;99.90;;;;;;5063603;28;20201;-75
2020/12/29 03:22:49;;;;;;;5.67;5.17;;;-1.20;99.90;;;;;;5076116;28;20539;-76
2020/12/29 03:25:15;;;;;;;6.43;5.10;;;-1.10;99.90;;;;;;5056065;28;21191;-76
2020/12/29 03:27:42;;;;;;;9.33;4.83;;;-1.20;99.90;;;;;;5057482;28;20453;-76
2020/12/29 03:30:08;;;;;;;6.30;5.17;;;-1.30;99.90;;;;;;5067562;28;20322;-76
2020/12/29 03:32:34;;;;;;;5.27;4.73;;;-1.30;99.90;;;;;;5058921;28;20492;-75
2020/12/29 03:35:00;;;;;;;4.90;4.43;;;-1.30;99.90;;;;;;5062135;28;20445;-75
2020/12/29 03:37:25;;;;;;;5.60;4.47;;;-1.20;99.90;;;;;;5054922;28;20222;-75
2020/12/29 03:39:51;;;;;;;8.40;4.63;;;-1.10;99.90;;;;;;5046363;28;20642;-76
2020/12/29 03:42:17;;;;;;;5.33;4.77;;;-1.20;99.90;;;;;;5062157;28;20203;-75
2020/12/29 03:44:43;;;;;;;7.17;4.67;;;-1.20;99.90;;;;;;5088367;28;20211;-75
2020/12/29 03:47:08;;;;;;;6.60;4.87;;;-1.10;99.90;;;;;;5054383;28;20766;-75
2020/12/29 03:49:34;;;;;;;7.93;4.73;;;-1.10;99.90;;;;;;5049829;28;20224;-75
2020/12/29 03:52:00;;;;;;;8.70;4.20;;;-1.00;99.90;;;;;;5045855;28;20265;-75
2020/12/29 03:54:25;;;;;;;5.50;4.50;;;-1.10;99.90;;;;;;5031855;28;20420;-75
2020/12/29 03:56:51;;;;;;;4.57;3.73;;;-1.20;99.90;;;;;;5076843;28;20217;-75
2020/12/29 03:59:16;;;;;;;6.20;4.57;;;-1.20;99.90;;;;;;5043166;28;20230;-75
2020/12/29 04:01:42;;;;;;;4.43;4.03;;;-0.80;99.90;;;;;;5035657;28;20560;-75
2020/12/29 04:04:09;;;;;;;5.20;4.40;;;-0.80;99.90;;;;;;5057190;28;20210;-75
2020/12/29 04:06:35;;;;;;;4.53;4.13;;;-0.90;99.90;;;;;;5059386;28;20208;-75
2020/12/29 04:09:03;;;;;;;5.53;4.93;;;-1.00;99.90;;;;;;5044460;28;20429;-76
2020/12/29 04:11:29;;;;;;;6.80;4.33;;;-0.90;99.90;;;;;;5053257;28;20380;-75
2020/12/29 04:13:55;;;;;;;5.20;4.67;;;-0.80;99.90;;;;;;5066282;28;20411;-75
2020/12/29 04:16:22;;;;;;;6.03;4.77;;;-0.80;99.90;;;;;;5070942;28;20220;-75
2020/12/29 04:18:48;;;;;;;5.13;4.40;;;-0.70;99.90;;;;;;5077291;28;20496;-76
2020/12/29 04:21:14;;;;;;;5.40;4.90;;;-0.60;99.90;;;;;;5092753;28;20446;-76
2020/12/29 04:23:40;;;;;;;6.27;5.03;;;-0.40;99.90;;;;;;5078948;28;20497;-75
2020/12/29 04:26:10;;;;;;;6.50;4.90;;;-0.20;99.90;;;;;;5094684;28;20772;-75
2020/12/29 04:28:36;;;;;;;6.80;4.87;;;0.00;99.90;;;;;;5075849;28;20928;-75
2020/12/29 04:31:02;;;;;;;5.67;5.07;;;0.10;99.90;;;;;;5078128;28;20391;-75
2020/12/29 04:33:27;;;;;;;6.63;5.47;;;0.20;99.90;;;;;;5096830;28;20206;-75
2020/12/29 04:35:53;;;;;;;8.17;5.50;;;0.30;99.90;;;;;;5058163;28;20398;-75
2020/12/29 04:38:19;;;;;;;5.50;5.00;;;0.40;99.90;;;;;;5077495;28;20216;-76
2020/12/29 04:40:44;;;;;;;7.10;5.20;;;0.40;99.90;;;;;;5078046;28;20589;-75
2020/12/29 04:43:10;;;;;;;9.20;5.43;;;0.50;99.90;;;;;;5059163;28;20211;-76
2020/12/29 04:45:36;;;;;;;9.43;6.03;;;0.50;99.90;;;;;;5042006;28;20752;-76
2020/12/29 04:48:02;;;;;;;6.17;5.57;;;0.60;99.90;;;;;;5093733;28;20350;-75
2020/12/29 04:50:30;;;;;;;8.27;5.70;;;0.60;99.90;;;;;;5057619;28;20911;-75
2020/12/29 04:52:57;;;;;;;8.23;5.57;;;0.60;99.90;;;;;;5064885;28;20927;-75
2020/12/29 04:55:36;;;;;;;6.80;5.10;;;0.70;99.90;;;;;;5094072;28;20421;-75
2020/12/29 04:58:03;;;;;;;11.47;5.33;;;0.70;99.90;;;;;;5059707;28;20417;-75
2020/12/29 05:00:28;;;;;;;10.37;7.00;;;0.70;99.90;;;;;;5073885;28;20408;-75
2020/12/29 05:02:54;;;;;;;6.10;5.13;;;0.80;99.90;;;;;;5083189;28;20471;-76
2020/12/29 05:05:23;;;;;;;24.47;5.10;;;0.80;99.90;;;;;;5059882;28;20429;-76
2020/12/29 05:07:49;;;;;;;6.73;5.83;;;0.80;99.90;;;;;;5066043;28;20206;-75
2020/12/29 05:10:15;;;;;;;9.97;5.60;;;0.80;99.90;;;;;;5075101;28;21000;-75
2020/12/29 05:12:52;;;;;;;5.50;4.63;;;0.90;99.90;;;;;;5094977;28;20407;-75
2020/12/29 05:15:20;;;;;;;6.80;6.10;;;0.90;99.90;;;;;;5090933;28;20617;-75
2020/12/29 05:17:46;;;;;;;6.97;6.23;;;0.90;99.90;;;;;;5074539;28;20441;-76
2020/12/29 05:20:12;;;;;;;6.37;5.20;;;0.90;99.90;;;;;;5076172;28;20420;-76
2020/12/29 05:22:38;;;;;;;6.63;5.57;;;0.80;99.90;;;;;;5058860;28;20420;-77
2020/12/29 05:25:08;;;;;;;7.90;5.37;;;0.70;99.90;;;;;;5062058;28;20394;-76
2020/12/29 05:27:38;;;;;;;5.90;5.00;;;0.50;99.90;;;;;;5091533;28;20894;-75
2020/12/29 05:30:05;;;;;;;8.80;5.60;;;0.30;99.90;;;;;;5094325;28;20408;-75
2020/12/29 05:32:37;;;;;;;11.70;5.17;;;0.10;99.90;;;;;;5083989;28;20394;-76
2020/12/29 05:35:09;;;;;;;6.93;6.23;;;-0.10;99.90;;;;;;5088616;28;20382;-75
2020/12/29 05:37:39;;;;;;;7.73;5.40;;;-0.20;99.90;;;;;;5094629;28;20452;-75
2020/12/29 05:40:27;;;;;;;6.67;5.93;;;-0.30;99.90;;;;;;5092852;28;20440;-75
2020/12/29 05:42:56;;;;;;;7.90;6.47;;;-0.20;99.90;;;;;;5056805;28;20382;-75
2020/12/29 05:45:30;;;;;;;7.10;6.40;;;-0.10;99.90;;;;;;5092787;28;20391;-75
2020/12/29 05:47:56;;;;;;;8.50;6.67;;;-0.10;99.90;;;;;;5064429;28;20846;-76
2020/12/29 05:50:25;;;;;;;10.20;6.53;;;0.00;99.90;;;;;;5055357;28;20852;-76
2020/12/29 05:53:04;;;;;;;9.17;6.67;;;-0.10;99.90;;;;;;5074431;28;20384;-76
2020/12/29 05:55:34;;;;;;;6.93;5.83;;;-0.20;99.90;;;;;;5090569;28;20524;-76
2020/12/29 05:58:06;;;;;;;6.10;5.47;;;-0.30;99.90;;;;;;5077764;28;20877;-76
2020/12/29 06:00:33;;;;;;;8.57;5.90;;;-0.40;99.90;;;;;;5074149;28;20389;-75
2020/12/29 06:03:01;;;;;;;10.20;6.03;;;-0.60;99.90;;;;;;5076063;28;20474;-76
2020/12/29 06:05:29;;;;;;;8.80;6.07;;;-0.70;99.90;;;;;;5074532;28;20425;-75
2020/12/29 06:07:57;;;;;;;12.27;6.73;;;-0.70;99.90;;;;;;5094585;28;20516;-75
2020/12/29 06:10:27;;;;;;;8.57;6.80;;;-0.70;99.90;;;;;;5093314;28;20371;-75
2020/12/29 06:12:56;;;;;;;7.67;6.07;;;-0.90;99.90;;;;;;5090086;28;20378;-75
2020/12/29 06:15:35;;;;;;;8.30;6.37;;;-0.90;99.90;;;;;;5067927;28;20425;-75
2020/12/29 06:18:03;;;;;;;12.73;7.20;;;-0.80;99.90;;;;;;5059241;28;20422;-76
2020/12/29 06:20:47;;;;;;;10.07;7.27;;;-0.70;99.90;;;;;;5063420;28;20407;-76
2020/12/29 06:23:18;;;;;;;11.80;6.80;;;-0.50;99.90;;;;;;5053693;28;20400;-76
2020/12/29 06:25:46;;;;;;;9.53;6.70;;;-0.60;99.90;;;;;;5039022;28;20488;-77
2020/12/29 06:28:17;;;;;;;7.90;6.07;;;-0.90;99.90;;;;;;5080069;28;20417;-77
2020/12/29 06:30:43;;;;;;;7.97;5.23;;;-0.80;99.90;;;;;;5052774;28;20751;-76
2020/12/29 06:33:11;;;;;;;6.80;6.10;;;-0.90;99.90;;;;;;5045974;28;20450;-76
2020/12/29 06:35:36;;;;;;;11.07;6.70;;;-0.90;99.90;;;;;;5055471;28;20402;-76
2020/12/29 06:38:09;;;;;;;9.63;6.33;;;-0.80;99.90;;;;;;5046082;28;20448;-76
2020/12/29 06:40:36;;;;;;;5.90;5.20;;;-0.80;99.90;;;;;;5077325;28;21066;-76
2020/12/29 06:43:07;;;;;;;8.53;6.50;;;-0.90;99.90;;;;;;5078869;28;20380;-76
2020/12/29 06:45:36;;;;;;;7.93;7.10;;;-1.00;99.90;;;;;;5085003;28;20395;-76
2020/12/29 06:48:18;;;;;;;9.87;6.07;;;-1.10;99.90;;;;;;5058997;28;20402;-77
2020/12/29 06:50:45;;;;;;;7.97;5.90;;;-1.30;99.90;;;;;;5074777;28;20375;-76
2020/12/29 06:53:16;;;;;;;5.53;5.03;;;-1.40;99.90;;;;;;5036793;28;20914;-76
2020/12/29 06:55:49;;;;;;;7.17;6.20;;;-1.40;99.90;;;;;;5050779;28;20393;-76
2020/12/29 06:58:31;;;;;;;9.40;6.87;;;-1.20;99.90;;;;;;5071862;28;21001;-77
2020/12/29 07:01:36;;;;;;;9.23;6.53;;;-1.00;99.90;;;;;;5068724;28;20587;-76
2020/12/29 07:04:05;;;;;;;6.97;6.07;;;-1.10;99.90;;;;;;5074080;28;20461;-77
2020/12/29 07:06:35;;;;;;;6.97;6.27;;;-0.90;99.90;;;;;;5055470;28;20400;-77
2020/12/29 07:09:26;;;;;;;8.97;6.77;;;-0.70;99.90;;;;;;5075650;28;20564;-76
2020/12/29 07:12:10;;;;;;;9.00;7.73;;;-0.30;99.90;;;;;;5067851;28;20903;-76
2020/12/29 07:14:36;;;;;;;13.37;8.43;;;0.20;99.90;;;;;;5042170;28;20448;-76
2020/12/29 07:17:06;;;;;;;10.43;7.67;;;0.50;99.90;;;;;;5058240;28;20478;-76
2020/12/29 07:19:31;;;;;;;13.00;8.50;;;0.50;99.90;;;;;;5059633;28;20849;-77
2020/12/29 07:21:57;;;;;;;13.07;8.93;;;0.80;99.90;;;;;;5058002;28;20417;-77
2020/12/29 07:24:27;;;;;;;13.63;9.20;;;0.90;99.90;;;;;;5075864;28;20249;-77
2020/12/29 07:26:57;;;;;;;13.43;10.60;;;1.00;99.90;;;;;;5076895;28;20391;-77
2020/12/29 07:29:23;;;;;;;12.70;10.13;;;1.10;99.90;;;;;;5078832;28;20404;-78
2020/12/29 07:31:49;;;;;;;14.03;8.80;;;1.20;99.90;;;;;;5058182;28;20406;-77
2020/12/29 07:34:15;;;;;;;20.23;11.53;;;1.20;99.90;;;;;;5065901;28;20939;-77
2020/12/29 07:36:48;;;;;;;14.80;10.30;;;1.20;99.90;;;;;;5057131;28;20429;-76
2020/12/29 07:39:16;;;;;;;15.93;9.90;;;1.30;99.90;;;;;;5068039;28;20443;-76
2020/12/29 07:41:43;;;;;;;15.90;11.03;;;1.40;99.90;;;;;;5083571;28;20485;-76
2020/12/29 07:44:09;;;;;;;13.80;10.40;;;1.50;99.90;;;;;;5077512;28;20935;-76
2020/12/29 07:46:35;;;;;;;20.50;12.70;;;1.50;99.90;;;;;;5075021;28;20449;-77
2020/12/29 07:49:03;;;;;;;15.97;10.80;;;1.60;99.90;;;;;;5084278;28;21007;-76
2020/12/29 07:51:29;;;;;;;22.13;12.17;;;1.60;99.90;;;;;;5072560;28;20406;-77
2020/12/29 07:54:03;;;;;;;14.70;12.53;;;1.70;99.90;;;;;;5070503;28;20392;-77
2020/12/29 07:56:29;;;;;;;15.00;12.90;;;1.70;99.90;;;;;;5095077;28;20227;-77
2020/12/29 07:59:09;;;;;;;13.67;11.27;;;1.90;99.90;;;;;;5094253;28;20434;-77
2020/12/29 08:01:49;;;;;;;16.27;10.40;;;1.90;99.90;;;;;;5073879;28;20433;-77
2020/12/29 08:04:34;;;;;;;16.60;11.77;;;2.10;99.90;;;;;;5073773;28;20752;-77
2020/12/29 08:07:07;;;;;;;18.67;13.17;;;2.10;99.90;;;;;;5068158;28;20478;-77
2020/12/29 08:09:46;;;;;;;17.57;12.87;;;2.10;99.90;;;;;;5069344;28;20489;-77
2020/12/29 08:12:15;;;;;;;21.70;13.57;;;2.20;99.90;;;;;;5093729;28;20924;-77
2020/12/29 08:14:41;;;;;;;16.17;11.80;;;2.20;99.90;;;;;;5094909;28;20417;-77
2020/12/29 08:17:07;;;;;;;17.30;12.97;;;2.10;99.90;;;;;;5098406;27;20470;-77
2020/12/29 08:19:33;;;;;;;21.10;13.93;;;2.20;99.90;;;;;;5075672;28;20436;-76
2020/12/29 08:22:07;;;;;;;18.17;14.00;;;2.20;99.90;;;;;;5060868;28;20395;-77
2020/12/29 08:24:33;;;;;;;19.30;14.03;;;2.30;99.90;;;;;;5060940;28;20246;-76
2020/12/29 08:26:59;;;;;;;25.00;14.83;;;2.40;99.90;;;;;;5087577;28;20393;-77
2020/12/29 08:29:25;;;;;;;19.87;13.50;;;2.40;99.90;;;;;;5050529;28;20392;-77
2020/12/29 08:32:30;;;;;;;20.37;12.57;;;2.40;99.90;;;;;;5090683;28;20398;-77
2020/12/29 08:34:55;;;;;;;16.13;11.70;;;2.30;99.90;;;;;;5007618;28;20424;-78
2020/12/29 08:37:24;;;;;;;17.70;14.27;;;2.40;99.90;;;;;;5009598;28;20487;-77
2020/12/29 08:40:12;;;;;;;19.93;13.70;;;2.30;99.90;;;;;;5001491;28;20416;-77
2020/12/29 08:42:42;;;;;;;20.07;13.50;;;2.40;99.90;;;;;;4991603;28;20436;-77
2020/12/29 08:45:10;;;;;;;19.07;12.27;;;2.50;99.90;;;;;;5012159;28;20395;-79
2020/12/29 08:47:36;;;;;;;29.33;12.13;;;2.60;99.90;;;;;;4987549;28;20392;-77
2020/12/29 08:50:38;;;;;;;26.53;12.60;;;2.70;99.90;;;;;;5009664;28;20759;-77
2020/12/29 08:53:08;;;;;;;20.23;14.10;;;2.80;99.90;;;;;;5002049;28;20270;-77
2020/12/29 08:55:36;;;;;;;20.63;13.57;;;2.60;99.90;;;;;;4990395;28;20989;-77
2020/12/29 08:58:04;;;;;;;18.90;13.17;;;2.60;99.90;;;;;;5004213;28;20511;-77
2020/12/29 09:00:30;;;;;;;18.27;12.90;;;2.50;99.90;;;;;;4996093;28;20533;-77
2020/12/29 09:02:57;;;;;;;17.47;13.50;;;2.70;99.90;;;;;;5008894;28;21514;-78
2020/12/29 09:05:27;;;;;;;17.83;14.97;;;2.70;99.90;;;;;;5017754;28;20422;-76
2020/12/29 09:07:54;;;;;;;19.00;13.70;;;2.70;99.90;;;;;;5076125;28;20406;-76
2020/12/29 09:10:20;;;;;;;16.77;11.97;;;2.70;99.90;;;;;;5097589;28;20970;-75
2020/12/29 09:12:46;;;;;;;25.60;19.57;;;2.80;99.90;;;;;;5074124;28;20409;-75
2020/12/29 09:15:24;;;;;;;14.67;12.30;;;2.80;99.90;;;;;;5059533;28;20460;-75
2020/12/29 09:17:56;;;;;;;15.33;11.40;;;2.80;99.90;;;;;;5074573;28;20445;-76
2020/12/29 09:20:29;;;;;;;17.13;13.07;;;2.90;99.90;;;;;;5074337;28;21002;-76
2020/12/29 09:22:54;;;;;;;26.23;11.07;;;2.90;99.90;;;;;;5058742;28;20462;-76
2020/12/29 09:25:28;;;;;;;14.57;10.90;;;3.10;99.90;;;;;;5071396;28;20578;-76
2020/12/29 09:28:14;;;;;;;17.90;11.80;;;3.20;99.90;;;;;;5067595;28;20230;-76
2020/12/29 09:30:47;;;;;;;16.73;11.43;;;3.40;99.90;;;;;;5074262;28;20889;-76
2020/12/29 09:33:19;;;;;;;10.53;9.47;;;3.40;99.90;;;;;;5091559;28;21124;-75
2020/12/29 09:35:45;;;;;;;14.97;9.40;;;3.40;99.90;;;;;;5083323;28;22143;-75
2020/12/29 09:38:12;;;;;;;12.23;10.00;;;3.40;99.90;;;;;;5068597;28;20405;-75
2020/12/29 09:40:39;;;;;;;16.57;12.87;;;3.40;99.90;;;;;;5076905;28;20409;-76
2020/12/29 09:43:06;;;;;;;16.13;10.90;;;3.50;99.90;;;;;;5071908;28;20380;-76
2020/12/29 09:45:32;;;;;;;14.73;10.27;;;3.50;99.90;;;;;;5069695;28;20978;-76
2020/12/29 09:47:57;;;;;;;13.30;8.30;;;3.50;99.90;;;;;;5064617;28;20395;-76
2020/12/29 09:50:23;;;;;;;21.70;11.00;;;3.50;99.90;;;;;;5056750;28;20447;-77
2020/12/29 09:52:49;;;;;;;13.90;9.57;;;3.50;99.90;;;;;;5062366;28;20327;-76
2020/12/29 09:55:14;;;;;;;16.30;9.63;;;3.30;99.90;;;;;;5066198;28;20934;-76
2020/12/29 09:57:42;;;;;;;13.07;10.47;;;3.20;99.90;;;;;;5057833;28;20209;-76
2020/12/29 10:00:08;;;;;;;15.70;10.30;;;3.20;99.90;;;;;;5064732;28;20643;-76
2020/12/29 10:02:34;;;;;;;14.77;11.20;;;3.30;99.90;;;;;;5052528;28;20406;-76
2020/12/29 10:05:00;;;;;;;14.17;9.73;;;3.40;99.90;;;;;;5051754;28;20686;-76
2020/12/29 10:07:26;;;;;;;13.83;9.60;;;3.50;99.90;;;;;;5055285;28;20409;-75
2020/12/29 10:09:52;;;;;;;12.20;10.43;;;3.60;99.90;;;;;;5050912;28;20411;-76
2020/12/29 10:12:18;;;;;;;16.70;11.23;;;3.60;99.90;;;;;;5089928;28;20412;-76
2020/12/29 10:14:44;;;;;;;11.07;9.63;;;3.90;99.90;;;;;;5071693;28;20965;-76
2020/12/29 10:17:10;;;;;;;11.70;9.60;;;3.70;99.90;;;;;;5038341;28;20409;-77
2020/12/29 10:19:36;;;;;;;16.37;12.33;;;3.60;99.90;;;;;;5088819;28;20499;-76
2020/12/29 10:22:02;;;;;;;12.03;9.50;;;3.70;99.90;;;;;;5091158;28;20204;-76
2020/12/29 10:24:29;;;;;;;12.50;9.60;;;3.80;99.90;;;;;;5072733;28;20216;-75
2020/12/29 10:26:56;;;;;;;16.17;11.30;;;3.70;99.90;;;;;;5036216;28;20205;-76
2020/12/29 10:29:22;;;;;;;12.50;9.60;;;3.60;99.90;;;;;;5078728;28;20418;-76
2020/12/29 10:31:48;;;;;;;18.30;12.73;;;3.60;99.90;;;;;;5058734;28;20396;-76
2020/12/29 10:34:15;;;;;;;14.50;11.60;;;3.60;99.90;;;;;;5071866;28;20456;-76
2020/12/29 10:36:42;;;;;;;14.33;11.60;;;3.60;99.90;;;;;;5073321;28;20212;-76
2020/12/29 10:39:09;;;;;;;14.20;11.80;;;3.70;99.90;;;;;;5100093;28;20436;-77
2020/12/29 10:41:38;;;;;;;17.73;11.80;;;3.50;99.90;;;;;;5071378;28;20893;-76
2020/12/29 10:44:05;;;;;;;17.27;12.40;;;3.50;99.90;;;;;;5092649;28;20419;-76
2020/12/29 10:46:31;;;;;;;17.67;13.37;;;3.50;99.90;;;;;;5078289;28;20412;-77
2020/12/29 10:48:57;;;;;;;21.37;15.00;;;3.60;99.90;;;;;;5070882;28;20408;-76
2020/12/29 10:51:24;;;;;;;17.60;12.47;;;3.70;99.90;;;;;;5058439;28;20682;-76
2020/12/29 10:53:51;;;;;;;22.47;14.67;;;3.80;99.90;;;;;;5077071;28;20734;-76
2020/12/29 10:56:18;;;;;;;23.90;17.10;;;3.70;99.90;;;;;;5077015;28;20468;-76
2020/12/29 10:58:45;;;;;;;20.53;13.40;;;3.70;99.90;;;;;;5079733;28;20399;-76
2020/12/29 11:01:19;;;;;;;18.40;14.53;;;3.80;99.90;;;;;;5085193;28;20418;-76
2020/12/29 11:03:45;;;;;;;19.33;12.83;;;3.80;99.90;;;;;;5051586;28;20502;-76
2020/12/29 11:06:17;;;;;;;18.30;14.67;;;3.90;99.90;;;;;;5054753;28;20529;-76
2020/12/29 11:08:43;;;;;;;18.57;13.90;;;3.80;99.90;;;;;;5067368;28;20704;-76
2020/12/29 11:11:09;;;;;;;23.17;16.33;;;3.80;99.90;;;;;;5072886;28;20365;-76
2020/12/29 11:13:36;;;;;;;24.50;15.87;;;3.70;99.90;;;;;;5072937;28;20387;-77
2020/12/29 11:16:02;;;;;;;17.27;15.00;;;3.70;99.90;;;;;;5090888;28;20401;-77
2020/12/29 11:18:28;;;;;;;21.10;14.53;;;3.50;99.90;;;;;;5093676;28;21192;-76
2020/12/29 11:20:55;;;;;;;24.83;14.60;;;3.40;99.90;;;;;;5084620;28;20540;-76
2020/12/29 11:23:21;;;;;;;19.17;14.70;;;3.40;99.90;;;;;;5090347;28;20593;-77
2020/12/29 11:25:47;;;;;;;29.60;15.87;;;3.30;99.90;;;;;;5092300;28;20885;-76
2020/12/29 11:28:12;;;;;;;21.90;16.70;;;3.30;99.90;;;;;;5059381;28;20443;-76
2020/12/29 11:30:38;;;;;;;25.03;17.73;;;3.30;99.90;;;;;;5053447;28;20655;-76
2020/12/29 11:33:04;;;;;;;24.47;17.30;;;3.20;99.90;;;;;;5075146;28;20670;-77
2020/12/29 11:35:31;;;;;;;22.50;16.63;;;3.20;99.90;;;;;;5071255;28;20433;-77
2020/12/29 11:37:57;;;;;;;32.00;19.87;;;3.20;99.90;;;;;;5070535;28;20256;-76
2020/12/29 11:40:22;;;;;;;30.10;17.53;;;3.30;99.90;;;;;;5073289;28;20408;-77
2020/12/29 11:42:49;;;;;;;28.20;19.33;;;3.20;99.90;;;;;;5039795;28;21491;-77
2020/12/29 11:45:14;;;;;;;26.53;18.87;;;3.20;99.90;;;;;;5053454;28;20650;-76
2020/12/29 11:47:40;;;;;;;32.80;19.87;;;3.20;99.90;;;;;;5074623;28;20433;-76
2020/12/29 11:50:06;;;;;;;30.30;19.30;;;3.20;99.90;;;;;;5071078;28;20613;-77
2020/12/29 11:52:31;;;;;;;24.77;17.03;;;3.30;99.90;;;;;;5056238;28;20341;-77
2020/12/29 11:54:59;;;;;;;30.00;20.03;;;3.30;99.90;;;;;;5040473;28;20673;-77
2020/12/29 11:57:25;;;;;;;34.53;21.87;;;3.30;99.90;;;;;;5089915;28;20218;-77
2020/12/29 11:59:50;;;;;;;32.40;20.13;;;3.30;99.90;;;;;;5072231;28;20428;-76
2020/12/29 12:02:16;;;;;;;25.77;16.13;;;3.30;99.90;;;;;;5072515;28;20215;-76
2020/12/29 12:04:42;;;;;;;31.30;20.53;;;3.40;99.90;;;;;;5073015;28;20694;-76
2020/12/29 12:07:11;;;;;;;34.93;20.57;;;3.40;99.90;;;;;;5071070;28;20677;-76
2020/12/29 12:09:40;;;;;;;36.20;21.30;;;3.50;99.90;;;;;;5070046;28;20215;-77
2020/12/29 12:12:07;;;;;;;29.50;20.53;;;3.50;99.90;;;;;;5088838;28;20441;-77
2020/12/29 12:14:33;;;;;;;29.40;18.67;;;3.50;99.90;;;;;;5040372;28;20482;-76
2020/12/29 12:16:58;;;;;;;36.07;22.77;;;3.60;99.90;;;;;;5088017;28;20483;-76
2020/12/29 12:19:24;;;;;;;30.83;20.80;;;3.60;99.90;;;;;;5093241;28;20539;-77
2020/12/29 12:21:51;;;;;;;37.47;22.17;;;3.50;99.90;;;;;;5091819;28;20234;-77
2020/12/29 12:24:17;;;;;;;38.80;28.27;;;3.60;99.90;;;;;;5056843;28;20400;-77
2020/12/29 12:26:43;;;;;;;34.90;23.37;;;3.60;99.90;;;;;;5052527;28;20404;-76
2020/12/29 12:29:09;;;;;;;40.53;23.13;;;3.60;99.90;;;;;;5072461;28;20299;-77
2020/12/29 12:31:34;;;;;;;33.77;21.13;;;3.70;99.90;;;;;;5073748;28;20219;-77
2020/12/29 12:34:00;;;;;;;38.83;24.17;;;3.70;99.90;;;;;;5054271;28;20426;-76
2020/12/29 12:36:26;;;;;;;44.40;26.20;;;3.70;99.90;;;;;;5055269;28;20208;-76
2020/12/29 12:38:52;;;;;;;36.80;24.00;;;3.80;99.90;;;;;;5058103;28;20558;-76
2020/12/29 12:41:17;;;;;;;35.20;22.90;;;3.80;99.90;;;;;;5092432;28;20219;-76
2020/12/29 12:43:44;;;;;;;40.47;26.10;;;3.90;99.90;;;;;;5069945;28;20218;-76
2020/12/29 12:46:10;;;;;;;38.83;23.60;;;3.90;99.90;;;;;;5055256;28;20204;-76
2020/12/29 12:48:38;;;;;;;33.40;18.53;;;3.90;99.90;;;;;;5073891;28;20432;-76
2020/12/29 12:51:05;;;;;;;39.10;22.60;;;4.00;99.90;;;;;;5056774;28;20470;-76